createdAt,value
2023-02-14T00:00:02.328Z,3.90
2023-02-14T00:02:36.462Z,4.93
2023-02-14T00:05:58.264Z,1.15
2023-02-14T00:08:30.950Z,3.17
2023-02-14T00:11:06.392Z,4.63
2023-02-14T00:13:39.996Z,4.90
2023-02-14T00:16:14.245Z,1.85
2023-02-14T00:19:11.773Z,3.05
2023-02-14T00:21:42.443Z,5.18
2023-02-14T00:24:18.062Z,2.53
2023-02-14T00:26:51.965Z,3.60
2023-02-14T00:29:35.100Z,8.25
2023-02-14T00:32:07.107Z,10.25
2023-02-14T00:34:38.235Z,2.65
2023-02-14T00:37:07.923Z,3.67
2023-02-14T00:39:39.050Z,5.88
2023-02-14T00:42:11.421Z,5.47
2023-02-14T00:44:44.722Z,3.97
2023-02-14T00:47:14.027Z,3.70
2023-02-14T00:49:46.222Z,3.42
2023-02-14T00:52:17.842Z,1.15
2023-02-14T00:54:51.152Z,6.43
2023-02-14T00:57:24.430Z,2.65
2023-02-14T00:59:55.057Z,4.25
2023-02-14T01:02:24.341Z,5.68
2023-02-14T01:04:55.415Z,5.95
2023-02-14T01:07:26.856Z,5.47
2023-02-14T01:09:58.609Z,5.20
2023-02-14T01:15:01.818Z,6.88
2023-02-14T01:17:33.535Z,4.13
2023-02-14T01:20:07.176Z,6.22
2023-02-14T01:22:42.604Z,3.53
2023-02-14T01:25:12.454Z,4.50
2023-02-14T01:27:42.289Z,2.80
2023-02-14T01:30:15.225Z,2.40
2023-02-14T01:32:45.663Z,5.20
2023-02-14T01:37:45.495Z,3.38
2023-02-14T01:40:21.244Z,7.50
2023-02-14T01:42:55.464Z,2.60
2023-02-14T01:45:32.469Z,10.50
2023-02-14T01:48:02.637Z,1.95
2023-02-14T01:50:41.494Z,2.40
2023-02-14T01:53:23.379Z,5.82
2023-02-14T01:56:01.855Z,6.88
2023-02-14T01:58:39.801Z,3.33
2023-02-14T02:01:12.200Z,8.00
2023-02-14T02:03:53.762Z,4.70
2023-02-14T02:06:34.434Z,4.32
2023-02-14T02:09:21.544Z,6.55
2023-02-14T02:11:52.598Z,6.80
2023-02-14T02:14:27.844Z,5.35
2023-02-14T02:17:29.394Z,6.82
2023-02-14T02:20:38.934Z,6.43
2023-02-14T02:23:29.438Z,4.78
2023-02-14T02:26:34.374Z,5.20
2023-02-14T02:29:36.849Z,3.28
2023-02-14T02:32:40.558Z,4.95
2023-02-14T02:35:37.722Z,3.42
2023-02-14T02:38:40.591Z,5.07
2023-02-14T02:41:20.200Z,2.95
2023-02-14T02:44:12.635Z,5.75
2023-02-14T02:46:49.375Z,9.18
2023-02-14T02:50:18.868Z,6.10
2023-02-14T02:53:16.118Z,3.63
2023-02-14T02:56:14.519Z,4.43
2023-02-14T02:59:07.258Z,2.33
2023-02-14T03:01:43.980Z,2.20
2023-02-14T03:04:35.994Z,2.75
2023-02-14T03:07:36.298Z,7.80
2023-02-14T03:10:21.869Z,5.72
2023-02-14T03:13:15.758Z,3.70
2023-02-14T03:16:14.291Z,5.30
2023-02-14T03:19:02.893Z,6.25
2023-02-14T03:21:52.695Z,1.90
2023-02-14T03:24:42.577Z,7.05
2023-02-14T03:27:42.059Z,6.68
2023-02-14T03:30:28.323Z,2.83
2023-02-14T03:33:11.070Z,10.43
2023-02-14T03:36:03.355Z,4.00
2023-02-14T03:38:57.600Z,5.55
2023-02-14T03:41:32.354Z,5.80
2023-02-14T03:44:12.350Z,2.65
2023-02-14T03:46:57.147Z,3.00
2023-02-14T03:49:34.430Z,3.30
2023-02-14T03:52:05.173Z,11.30
2023-02-14T03:54:38.561Z,7.95
2023-02-14T03:57:53.948Z,6.22
2023-02-14T04:00:26.635Z,7.00
2023-02-14T04:03:03.921Z,9.35
2023-02-14T04:05:38.137Z,3.60
2023-02-14T04:08:09.581Z,4.55
2023-02-14T04:10:51.164Z,6.27
2023-02-14T04:13:22.561Z,4.07
2023-02-14T04:15:54.715Z,2.88
2023-02-14T04:18:43.634Z,8.23
2023-02-14T04:21:15.707Z,2.15
2023-02-14T04:23:46.538Z,8.48
2023-02-14T04:28:54.065Z,4.30
2023-02-14T04:31:27.471Z,4.18
2023-02-14T04:34:03.719Z,6.40
2023-02-14T04:36:33.932Z,3.65
2023-02-14T04:39:09.684Z,6.97
2023-02-14T04:41:40.518Z,3.58
2023-02-14T04:44:11.661Z,6.23
2023-02-14T04:46:42.366Z,5.60
2023-02-14T04:49:14.566Z,5.72
2023-02-14T04:51:47.245Z,1.02
2023-02-14T04:54:19.928Z,7.55
2023-02-14T04:56:54.136Z,4.43
2023-02-14T04:59:25.193Z,3.83
2023-02-14T05:01:58.329Z,3.35
2023-02-14T05:04:32.282Z,7.55
2023-02-14T05:07:04.244Z,3.65
2023-02-14T05:09:35.998Z,5.05
2023-02-14T05:12:05.276Z,11.30
2023-02-14T05:14:34.296Z,24.35
2023-02-14T05:17:08.826Z,167.20
2023-02-14T05:19:41.503Z,14.90
2023-02-14T05:22:12.290Z,92.43
2023-02-14T05:24:44.324Z,105.10
2023-02-14T05:27:14.618Z,40.22
2023-02-14T05:32:15.470Z,3.40
2023-02-14T05:34:48.361Z,15.25
2023-02-14T05:37:24.416Z,18.13
2023-02-14T05:39:55.867Z,10.48
2023-02-14T05:42:29.769Z,12.65
2023-02-14T05:45:01.237Z,7.93
2023-02-14T05:47:33.911Z,8.57
2023-02-14T05:50:07.818Z,4.45
2023-02-14T05:52:42.604Z,4.78
2023-02-14T05:55:12.523Z,8.77
2023-02-14T05:57:44.028Z,8.30
2023-02-14T06:00:16.086Z,8.52
2023-02-14T06:02:46.916Z,3.67
2023-02-14T06:07:54.125Z,6.20
2023-02-14T06:10:34.482Z,7.68
2023-02-14T06:13:12.371Z,5.18
2023-02-14T06:15:44.682Z,4.55
2023-02-14T06:18:16.516Z,6.18
2023-02-14T06:20:47.051Z,2.90
2023-02-14T06:23:20.957Z,3.28
2023-02-14T06:25:53.946Z,6.63
2023-02-14T06:28:28.460Z,3.72
2023-02-14T06:31:02.456Z,7.40
2023-02-14T06:33:35.922Z,7.45
2023-02-14T06:36:07.118Z,2.97
2023-02-14T06:38:44.716Z,1.88
2023-02-14T06:41:21.079Z,4.93
2023-02-14T06:43:53.759Z,3.97
2023-02-14T06:46:29.243Z,6.10
2023-02-14T06:49:03.727Z,5.60
2023-02-14T06:51:34.263Z,6.22
2023-02-14T06:54:04.481Z,6.80
2023-02-14T06:56:36.768Z,5.82
2023-02-14T06:59:10.453Z,4.07
2023-02-14T07:01:46.586Z,6.72
2023-02-14T07:04:20.067Z,5.68
2023-02-14T07:06:54.318Z,5.10
2023-02-14T07:09:27.617Z,3.78
2023-02-14T07:12:01.221Z,5.28
2023-02-14T07:14:33.951Z,3.13
2023-02-14T07:17:04.740Z,2.22
2023-02-14T07:19:35.569Z,2.40
2023-02-14T07:22:11.333Z,6.40
2023-02-14T07:24:44.632Z,5.47
2023-02-14T07:27:19.407Z,2.63
2023-02-14T07:29:55.219Z,5.68
2023-02-14T07:32:24.923Z,7.30
2023-02-14T07:34:56.263Z,6.63
2023-02-14T07:37:28.019Z,7.10
2023-02-14T07:40:01.924Z,3.85
2023-02-14T07:42:34.604Z,4.13
2023-02-14T07:45:20.782Z,5.18
2023-02-14T07:47:56.863Z,3.10
2023-02-14T07:50:24.557Z,2.38
2023-02-14T07:52:54.446Z,2.72
2023-02-14T07:55:27.227Z,3.65
2023-02-14T07:58:00.519Z,3.00
2023-02-14T08:00:36.270Z,4.68
2023-02-14T08:03:10.174Z,2.58
2023-02-14T08:05:44.382Z,3.95
2023-02-14T08:08:23.820Z,2.85
2023-02-14T08:10:56.520Z,3.45
2023-02-14T08:13:26.742Z,4.60
2023-02-14T08:16:10.203Z,3.95
2023-02-14T08:18:51.441Z,3.05
2023-02-14T08:21:23.807Z,3.92
2023-02-14T08:24:03.553Z,2.78
2023-02-14T08:26:35.923Z,5.40
2023-02-14T08:29:05.225Z,5.57
2023-02-14T08:31:36.832Z,1.23
2023-02-14T08:34:07.208Z,7.00
2023-02-14T08:36:42.170Z,2.75
2023-02-14T08:39:12.537Z,1.63
2023-02-14T08:41:46.786Z,1.90
2023-02-14T08:44:20.688Z,5.32
2023-02-14T08:46:54.053Z,1.90
2023-02-14T08:49:25.438Z,4.22
2023-02-14T08:52:02.416Z,3.30
2023-02-14T08:54:31.410Z,2.30
2023-02-14T08:57:09.018Z,1.83
2023-02-14T08:59:41.422Z,3.65
2023-02-14T09:02:15.901Z,2.83
2023-02-14T09:04:51.046Z,3.35
2023-02-14T09:07:25.250Z,5.28
2023-02-14T09:09:54.517Z,4.38
2023-02-14T09:12:29.391Z,0.63
2023-02-14T09:14:59.623Z,7.65
2023-02-14T09:17:35.106Z,5.78
2023-02-14T09:20:09.617Z,4.07
2023-02-14T09:22:43.780Z,2.30
2023-02-14T09:25:15.557Z,3.08
2023-02-14T09:27:47.618Z,5.15
2023-02-14T09:30:20.628Z,2.15
2023-02-14T09:32:53.897Z,5.60
2023-02-14T09:35:27.815Z,1.15
2023-02-14T09:38:19.837Z,1.75
2023-02-14T09:40:53.364Z,2.40
2023-02-14T09:43:51.617Z,3.85
2023-02-14T09:46:25.224Z,2.22
2023-02-14T09:48:58.582Z,2.67
2023-02-14T09:51:34.569Z,4.07
2023-02-14T09:54:20.765Z,1.80
2023-02-14T09:57:14.344Z,2.13
2023-02-14T10:00:23.933Z,3.05
2023-02-14T10:03:25.060Z,3.67
2023-02-14T10:06:06.079Z,2.20
2023-02-14T10:11:28.670Z,1.42
2023-02-14T10:14:07.183Z,4.63
2023-02-14T10:16:54.405Z,2.67
2023-02-14T10:19:35.281Z,2.25
2023-02-14T10:22:26.699Z,6.35
2023-02-14T10:25:14.644Z,9.68
2023-02-14T10:27:52.133Z,2.90
2023-02-14T10:30:32.261Z,5.43
2023-02-14T10:33:24.113Z,3.50
2023-02-14T10:36:14.390Z,5.72
2023-02-14T10:38:54.658Z,3.88
2023-02-14T10:41:56.526Z,2.67
2023-02-14T10:44:49.176Z,0.70
2023-02-14T10:48:01.182Z,8.30
2023-02-14T10:51:03.969Z,4.75
2023-02-14T10:53:40.326Z,4.03
2023-02-14T10:56:42.449Z,2.50
2023-02-14T10:59:40.678Z,2.67
2023-02-14T11:02:20.725Z,1.15
2023-02-14T11:04:51.230Z,3.57
2023-02-14T11:07:27.621Z,4.63
2023-02-14T11:10:02.440Z,3.58
2023-02-14T11:12:38.819Z,1.60
2023-02-14T11:15:24.713Z,5.43
2023-02-14T11:18:34.258Z,4.40
2023-02-14T11:21:20.760Z,1.17
2023-02-14T11:23:55.589Z,2.70
2023-02-14T11:26:34.106Z,4.22
2023-02-14T11:29:21.528Z,4.22
2023-02-14T11:31:53.619Z,2.95
2023-02-14T11:34:34.883Z,5.85
2023-02-14T11:37:21.996Z,5.38
2023-02-14T11:39:58.058Z,3.25
2023-02-14T11:42:39.030Z,2.38
2023-02-14T11:45:31.382Z,0.95
2023-02-14T11:48:36.585Z,3.33
2023-02-14T11:51:19.431Z,2.03
2023-02-14T11:53:54.571Z,2.35
2023-02-14T11:56:43.824Z,2.60
2023-02-14T11:59:23.890Z,5.40
2023-02-14T12:01:55.652Z,0.77
2023-02-14T12:04:46.305Z,4.05
2023-02-14T12:07:18.524Z,7.05
2023-02-14T12:09:53.963Z,2.00
2023-02-14T12:12:31.556Z,4.25
2023-02-14T12:15:27.631Z,2.72
2023-02-14T12:18:14.699Z,2.40
2023-02-14T12:21:10.728Z,4.32
2023-02-14T12:24:03.377Z,2.58
2023-02-14T12:26:41.894Z,3.85
2023-02-14T12:29:40.690Z,2.70
2023-02-14T12:32:33.641Z,5.47
2023-02-14T12:35:19.835Z,2.75
2023-02-14T12:38:10.952Z,3.40
2023-02-14T12:40:47.542Z,5.33
2023-02-14T12:43:49.179Z,1.65
2023-02-14T12:46:32.207Z,1.35
2023-02-14T12:49:13.536Z,0.80
2023-02-14T12:52:05.923Z,3.05
2023-02-14T12:54:44.135Z,4.25
2023-02-14T12:57:24.186Z,2.80
2023-02-14T13:00:15.396Z,3.08
2023-02-14T13:03:18.126Z,2.53
2023-02-14T13:06:07.350Z,1.25
2023-02-14T13:08:44.651Z,3.45
2023-02-14T13:11:32.536Z,3.72
2023-02-14T13:14:09.353Z,2.30
2023-02-14T13:17:12.404Z,3.63
2023-02-14T13:20:03.865Z,6.53
2023-02-14T13:22:39.930Z,1.57
2023-02-14T13:25:35.953Z,2.92
2023-02-14T13:28:08.635Z,1.10
2023-02-14T13:30:45.976Z,1.40
2023-02-14T13:33:35.101Z,5.10
2023-02-14T13:36:12.434Z,3.03
2023-02-14T13:41:34.752Z,4.03
2023-02-14T13:44:09.253Z,3.30
2023-02-14T13:46:52.761Z,4.32
2023-02-14T13:49:33.038Z,5.85
2023-02-14T13:52:11.562Z,5.50
2023-02-14T13:54:53.104Z,3.05
2023-02-14T13:57:41.489Z,2.50
2023-02-14T14:00:20.932Z,4.18
2023-02-14T14:03:02.438Z,2.38
2023-02-14T14:05:36.119Z,7.90
2023-02-14T14:08:51.811Z,4.68
2023-02-14T14:11:24.180Z,0.98
2023-02-14T14:14:08.531Z,3.13
2023-02-14T14:16:42.431Z,1.95
2023-02-14T14:19:33.536Z,3.03
2023-02-14T14:24:39.536Z,5.95
2023-02-14T14:27:25.112Z,2.50
2023-02-14T14:30:08.562Z,7.00
2023-02-14T14:32:42.396Z,4.57
2023-02-14T14:35:20.654Z,6.60
2023-02-14T14:37:59.486Z,0.82
2023-02-14T14:40:33.696Z,4.95
2023-02-14T14:43:21.431Z,4.65
2023-02-14T14:45:55.411Z,2.33
2023-02-14T14:48:54.438Z,6.00
2023-02-14T14:51:34.186Z,1.42
2023-02-14T14:54:17.007Z,6.22
2023-02-14T14:57:04.444Z,4.68
2023-02-14T14:59:42.215Z,6.57
2023-02-14T15:02:32.953Z,3.00
2023-02-14T15:05:26.712Z,7.35
2023-02-14T15:08:02.420Z,5.75
2023-02-14T15:10:33.610Z,1.73
2023-02-14T15:13:24.107Z,4.88
2023-02-14T15:15:54.026Z,4.85
2023-02-14T15:18:27.629Z,1.73
2023-02-14T15:20:59.595Z,6.72
2023-02-14T15:23:32.672Z,3.38
2023-02-14T15:26:02.165Z,10.55
2023-02-14T15:28:37.748Z,3.83
2023-02-14T15:31:09.942Z,5.00
2023-02-14T15:33:43.706Z,4.95
2023-02-14T15:36:28.673Z,7.43
2023-02-14T15:39:02.059Z,8.23
2023-02-14T15:41:33.744Z,8.02
2023-02-14T15:44:09.171Z,21.70
2023-02-14T15:46:43.690Z,39.80
2023-02-14T15:49:30.816Z,30.95
2023-02-14T15:52:10.559Z,25.20
2023-02-14T15:54:48.154Z,15.65
2023-02-14T15:57:32.152Z,24.42
2023-02-14T16:00:03.644Z,60.17
2023-02-14T16:02:42.190Z,45.25
2023-02-14T16:05:22.194Z,37.65
2023-02-14T16:08:10.565Z,16.30
2023-02-14T16:10:44.153Z,12.32
2023-02-14T16:13:21.751Z,12.30
2023-02-14T16:16:10.442Z,16.60
2023-02-14T16:18:48.300Z,26.17
2023-02-14T16:21:32.963Z,40.03
2023-02-14T16:24:09.952Z,37.10
2023-02-14T16:26:44.466Z,34.88
2023-02-14T16:29:20.223Z,23.90
2023-02-14T16:32:17.936Z,17.95
2023-02-14T16:34:52.015Z,21.05
2023-02-14T16:37:38.808Z,19.33
2023-02-14T16:40:16.101Z,18.00
2023-02-14T16:42:47.556Z,16.02
2023-02-14T16:45:19.916Z,22.85
2023-02-14T16:47:53.211Z,17.88
2023-02-14T16:50:23.581Z,21.92
2023-02-14T16:53:00.107Z,19.33
2023-02-14T16:55:34.022Z,29.48
2023-02-14T16:58:04.768Z,26.73
2023-02-14T17:00:35.696Z,28.48
2023-02-14T17:03:08.539Z,25.02
2023-02-14T17:05:43.817Z,24.00
2023-02-14T17:08:22.639Z,23.05
2023-02-14T17:10:56.557Z,21.60
2023-02-14T17:13:30.773Z,25.08
2023-02-14T17:16:04.085Z,33.22
2023-02-14T17:18:37.972Z,22.60
2023-02-14T17:21:10.124Z,27.85
2023-02-14T17:23:44.252Z,27.20
2023-02-14T17:26:16.986Z,23.35
2023-02-14T17:28:49.616Z,28.83
2023-02-14T17:31:23.638Z,20.55
2023-02-14T17:33:54.971Z,21.35
2023-02-14T17:36:27.043Z,29.65
2023-02-14T17:39:03.409Z,20.95
2023-02-14T17:41:36.383Z,27.20
2023-02-14T17:44:13.675Z,27.50
2023-02-14T17:46:48.440Z,27.10
2023-02-14T17:49:18.730Z,26.92
2023-02-14T17:51:52.012Z,19.02
2023-02-14T17:54:31.772Z,22.55
2023-02-14T17:57:02.157Z,24.40
2023-02-14T17:59:33.445Z,35.90
2023-02-14T18:02:05.537Z,21.65
2023-02-14T18:04:40.033Z,19.58
2023-02-14T18:07:13.143Z,21.20
2023-02-14T18:09:44.474Z,29.60
2023-02-14T18:12:16.243Z,54.70
2023-02-14T18:14:53.746Z,61.72
2023-02-14T18:17:24.660Z,52.85
2023-02-14T18:19:56.421Z,55.38
2023-02-14T18:22:33.710Z,50.60
2023-02-14T18:25:04.236Z,42.10
2023-02-14T18:27:34.157Z,28.17
2023-02-14T18:30:05.630Z,30.05
2023-02-14T18:32:38.898Z,33.10
2023-02-14T18:35:13.423Z,26.17
2023-02-14T18:37:49.827Z,57.28
2023-02-14T18:40:24.923Z,54.88
2023-02-14T18:42:58.517Z,46.25
2023-02-14T18:45:32.100Z,33.08
2023-02-14T18:48:02.953Z,42.13
2023-02-14T18:53:04.017Z,40.28
2023-02-14T18:55:35.124Z,35.92
2023-02-14T19:00:39.014Z,37.28
2023-02-14T20:03:11.162Z,40.08
2023-02-14T20:05:42.293Z,50.70
2023-02-14T20:08:13.692Z,46.08
2023-02-14T20:10:49.809Z,43.45
2023-02-14T20:13:19.732Z,54.72
2023-02-14T20:15:54.566Z,59.38
2023-02-14T20:18:25.081Z,56.95
2023-02-14T20:21:08.518Z,70.43
2023-02-14T20:23:41.972Z,68.57
2023-02-14T20:26:18.393Z,65.07
2023-02-14T20:29:10.832Z,77.22
2023-02-14T20:31:51.336Z,65.65
2023-02-14T20:34:23.818Z,69.18
2023-02-14T20:36:59.348Z,56.58
2023-02-14T20:39:38.455Z,60.13
2023-02-14T20:42:11.973Z,58.85
2023-02-14T20:44:42.063Z,52.20
2023-02-14T20:47:13.933Z,58.85
2023-02-14T20:49:52.109Z,60.75
2023-02-14T20:52:23.995Z,61.17
2023-02-14T20:54:54.475Z,61.70
2023-02-14T20:57:26.627Z,59.00
2023-02-14T21:00:01.419Z,65.68
2023-02-14T21:02:30.998Z,56.28
2023-02-14T21:05:03.714Z,59.92
2023-02-14T21:07:35.153Z,48.38
2023-02-14T21:10:07.831Z,58.22
2023-02-14T21:12:41.439Z,38.75
2023-02-14T21:15:12.898Z,38.13
2023-02-14T21:17:45.262Z,31.98
2023-02-14T21:20:15.175Z,31.70
2023-02-14T21:22:46.320Z,31.40
2023-02-14T21:25:18.082Z,31.95
2023-02-14T21:27:53.529Z,28.58
2023-02-14T21:30:27.181Z,32.63
2023-02-14T21:33:03.485Z,21.67
2023-02-14T21:35:32.059Z,22.23
2023-02-14T21:38:03.941Z,20.67
2023-02-14T21:40:34.775Z,21.10
2023-02-14T21:43:05.619Z,17.52
2023-02-14T21:45:54.459Z,26.00
2023-02-14T21:51:16.841Z,11.65
2023-02-14T21:53:49.217Z,13.35
2023-02-14T21:56:23.734Z,18.30
2023-02-14T21:59:00.097Z,16.75
2023-02-14T22:01:33.047Z,24.13
2023-02-14T22:04:12.047Z,17.52
2023-02-14T22:06:43.986Z,16.08
2023-02-14T22:09:21.256Z,11.18
2023-02-14T22:11:50.863Z,12.23
2023-02-14T22:14:21.389Z,13.27
2023-02-14T22:16:53.780Z,11.20
2023-02-14T22:19:26.129Z,15.88
2023-02-14T22:22:02.493Z,10.45
2023-02-14T22:24:44.591Z,15.75
